sensor_id;sensor_type;location;lat;lon;timestamp;temperature;humidity
7360;DHT22;3720;48.274;7.796;2022-09-23T00:02:08;9.80;99.90
7360;DHT22;3720;48.274;7.796;2022-09-23T00:04:41;9.70;99.90
7360;DHT22;3720;48.274;7.796;2022-09-23T00:07:13;9.60;99.90
7360;DHT22;3720;48.274;7.796;2022-09-23T00:09:45;9.60;99.90
7360;DHT22;3720;48.274;7.796;2022-09-23T00:12:18;9.60;99.90
7360;DHT22;3720;48.274;7.796;2022-09-23T00:14:50;9.60;99.90
7360;DHT22;3720;48.274;7.796;2022-09-23T00:17:21;9.70;99.90
7360;DHT22;3720;48.274;7.796;2022-09-23T00:19:55;9.60;99.90
7360;DHT22;3720;48.274;7.796;2022-09-23T00:22:27;9.50;99.90
7360;DHT22;3720;48.274;7.796;2022-09-23T00:24:59;9.50;99.90
7360;DHT22;3720;48.274;7.796;2022-09-23T00:27:31;9.50;99.90
7360;DHT22;3720;48.274;7.796;2022-09-23T00:30:06;9.50;99.90
7360;DHT22;3720;48.274;7.796;2022-09-23T00:32:39;9.50;99.90
7360;DHT22;3720;48.274;7.796;2022-09-23T00:35:12;9.50;99.90
7360;DHT22;3720;48.274;7.796;2022-09-23T00:37:44;9.50;99.90
7360;DHT22;3720;48.274;7.796;2022-09-23T00:40:16;9.50;99.90
7360;DHT22;3720;48.274;7.796;2022-09-23T00:42:49;9.40;99.90
7360;DHT22;3720;48.274;7.796;2022-09-23T00:45:21;9.30;99.90
7360;DHT22;3720;48.274;7.796;2022-09-23T00:47:56;9.30;99.90
7360;DHT22;3720;48.274;7.796;2022-09-23T00:50:35;9.30;99.90
7360;DHT22;3720;48.274;7.796;2022-09-23T00:53:10;9.30;99.90
7360;DHT22;3720;48.274;7.796;2022-09-23T00:55:47;9.40;99.90
7360;DHT22;3720;48.274;7.796;2022-09-23T00:58:22;9.40;99.90
7360;DHT22;3720;48.274;7.796;2022-09-23T01:00:57;9.40;99.90
7360;DHT22;3720;48.274;7.796;2022-09-23T01:03:30;9.30;99.90
7360;DHT22;3720;48.274;7.796;2022-09-23T01:06:05;9.30;99.90
7360;DHT22;3720;48.274;7.796;2022-09-23T01:08:37;9.30;99.90
7360;DHT22;3720;48.274;7.796;2022-09-23T01:11:33;9.30;99.90
7360;DHT22;3720;48.274;7.796;2022-09-23T01:14:19;9.20;99.90
7360;DHT22;3720;48.274;7.796;2022-09-23T01:17:01;9.20;99.90
7360;DHT22;3720;48.274;7.796;2022-09-23T01:20:05;9.30;99.90
7360;DHT22;3720;48.274;7.796;2022-09-23T01:22:50;9.20;99.90
7360;DHT22;3720;48.274;7.796;2022-09-23T01:25:40;9.20;99.90
7360;DHT22;3720;48.274;7.796;2022-09-23T01:28:35;9.20;99.90
7360;DHT22;3720;48.274;7.796;2022-09-23T01:31:16;9.00;99.90
7360;DHT22;3720;48.274;7.796;2022-09-23T01:33:54;8.90;99.90
7360;DHT22;3720;48.274;7.796;2022-09-23T01:36:34;8.90;99.90
7360;DHT22;3720;48.274;7.796;2022-09-23T01:39:12;8.80;99.90
7360;DHT22;3720;48.274;7.796;2022-09-23T01:41:53;8.80;99.90
7360;DHT22;3720;48.274;7.796;2022-09-23T01:44:31;8.70;99.90
7360;DHT22;3720;48.274;7.796;2022-09-23T01:47:09;8.60;99.90
7360;DHT22;3720;48.274;7.796;2022-09-23T01:49:49;8.60;99.90
7360;DHT22;3720;48.274;7.796;2022-09-23T01:52:25;8.60;99.90
7360;DHT22;3720;48.274;7.796;2022-09-23T01:55:08;8.70;99.90
7360;DHT22;3720;48.274;7.796;2022-09-23T01:57:45;8.70;99.90
7360;DHT22;3720;48.274;7.796;2022-09-23T02:00:21;8.60;99.90
7360;DHT22;3720;48.274;7.796;2022-09-23T02:02:57;8.70;99.90
7360;DHT22;3720;48.274;7.796;2022-09-23T02:05:33;8.70;99.90
7360;DHT22;3720;48.274;7.796;2022-09-23T02:08:12;8.80;99.90
7360;DHT22;3720;48.274;7.796;2022-09-23T02:10:47;8.70;99.90
7360;DHT22;3720;48.274;7.796;2022-09-23T02:13:27;8.70;99.90
7360;DHT22;3720;48.274;7.796;2022-09-23T02:16:05;8.50;99.90
7360;DHT22;3720;48.274;7.796;2022-09-23T02:18:45;8.40;99.90
7360;DHT22;3720;48.274;7.796;2022-09-23T02:21:19;8.40;99.90
7360;DHT22;3720;48.274;7.796;2022-09-23T02:24:00;8.30;99.90
7360;DHT22;3720;48.274;7.796;2022-09-23T02:26:39;8.40;99.90
7360;DHT22;3720;48.274;7.796;2022-09-23T02:29:20;8.30;99.90
7360;DHT22;3720;48.274;7.796;2022-09-23T02:31:56;8.30;99.90
7360;DHT22;3720;48.274;7.796;2022-09-23T02:34:40;8.30;99.90
7360;DHT22;3720;48.274;7.796;2022-09-23T02:37:22;8.40;99.90
7360;DHT22;3720;48.274;7.796;2022-09-23T02:40:00;8.30;99.90
7360;DHT22;3720;48.274;7.796;2022-09-23T02:42:40;8.30;99.90
7360;DHT22;3720;48.274;7.796;2022-09-23T02:45:16;8.30;99.90
7360;DHT22;3720;48.274;7.796;2022-09-23T02:47:51;8.20;99.90
7360;DHT22;3720;48.274;7.796;2022-09-23T02:50:25;8.20;99.90
7360;DHT22;3720;48.274;7.796;2022-09-23T02:52:58;8.10;99.90
7360;DHT22;3720;48.274;7.796;2022-09-23T02:55:31;8.10;99.90
7360;DHT22;3720;48.274;7.796;2022-09-23T02:58:03;8.10;99.90
7360;DHT22;3720;48.274;7.796;2022-09-23T03:00:44;8.10;99.90
7360;DHT22;3720;48.274;7.796;2022-09-23T03:03:28;8.10;99.90
7360;DHT22;3720;48.274;7.796;2022-09-23T03:06:14;8.10;99.90
7360;DHT22;3720;48.274;7.796;2022-09-23T03:08:53;8.10;99.90
7360;DHT22;3720;48.274;7.796;2022-09-23T03:11:27;8.10;99.90
7360;DHT22;3720;48.274;7.796;2022-09-23T03:14:07;8.10;99.90
7360;DHT22;3720;48.274;7.796;2022-09-23T03:16:51;8.20;99.90
7360;DHT22;3720;48.274;7.796;2022-09-23T03:19:28;8.20;99.90
7360;DHT22;3720;48.274;7.796;2022-09-23T03:22:07;8.20;99.90
7360;DHT22;3720;48.274;7.796;2022-09-23T03:24:42;8.20;99.90
7360;DHT22;3720;48.274;7.796;2022-09-23T03:27:17;8.20;99.90
7360;DHT22;3720;48.274;7.796;2022-09-23T03:29:51;8.20;99.90
7360;DHT22;3720;48.274;7.796;2022-09-23T03:32:26;8.30;99.90
7360;DHT22;3720;48.274;7.796;2022-09-23T03:35:00;8.30;99.90
7360;DHT22;3720;48.274;7.796;2022-09-23T03:37:38;8.30;99.90
7360;DHT22;3720;48.274;7.796;2022-09-23T03:40:14;8.30;99.90
7360;DHT22;3720;48.274;7.796;2022-09-23T03:42:47;8.30;99.90
7360;DHT22;3720;48.274;7.796;2022-09-23T03:45:22;8.30;99.90
7360;DHT22;3720;48.274;7.796;2022-09-23T03:47:55;8.30;99.90
7360;DHT22;3720;48.274;7.796;2022-09-23T03:50:27;8.30;99.90
7360;DHT22;3720;48.274;7.796;2022-09-23T03:53:01;8.30;99.90
7360;DHT22;3720;48.274;7.796;2022-09-23T03:55:32;8.30;99.90
7360;DHT22;3720;48.274;7.796;2022-09-23T03:58:05;8.30;99.90
7360;DHT22;3720;48.274;7.796;2022-09-23T04:00:37;8.30;99.90
7360;DHT22;3720;48.274;7.796;2022-09-23T04:03:09;8.30;99.90
7360;DHT22;3720;48.274;7.796;2022-09-23T04:05:41;8.30;99.90
7360;DHT22;3720;48.274;7.796;2022-09-23T04:08:14;8.20;99.90
7360;DHT22;3720;48.274;7.796;2022-09-23T04:10:46;8.20;99.90
7360;DHT22;3720;48.274;7.796;2022-09-23T04:13:18;8.10;99.90
7360;DHT22;3720;48.274;7.796;2022-09-23T04:15:50;8.10;99.90
7360;DHT22;3720;48.274;7.796;2022-09-23T04:18:22;8.10;99.90
7360;DHT22;3720;48.274;7.796;2022-09-23T04:20:56;8.10;99.90
7360;DHT22;3720;48.274;7.796;2022-09-23T04:23:31;8.10;99.90
7360;DHT22;3720;48.274;7.796;2022-09-23T04:26:03;8.10;99.90
7360;DHT22;3720;48.274;7.796;2022-09-23T04:28:35;8.10;99.90
7360;DHT22;3720;48.274;7.796;2022-09-23T04:31:07;8.10;99.90
7360;DHT22;3720;48.274;7.796;2022-09-23T04:33:39;8.10;99.90
7360;DHT22;3720;48.274;7.796;2022-09-23T04:36:11;8.10;99.90
7360;DHT22;3720;48.274;7.796;2022-09-23T04:38:44;8.10;99.90
7360;DHT22;3720;48.274;7.796;2022-09-23T04:41:17;8.10;99.90
7360;DHT22;3720;48.274;7.796;2022-09-23T04:43:50;8.10;99.90
7360;DHT22;3720;48.274;7.796;2022-09-23T04:46:23;8.10;99.90
7360;DHT22;3720;48.274;7.796;2022-09-23T04:48:55;8.20;99.90
7360;DHT22;3720;48.274;7.796;2022-09-23T04:51:27;8.20;99.90
7360;DHT22;3720;48.274;7.796;2022-09-23T04:54:00;8.30;99.90
7360;DHT22;3720;48.274;7.796;2022-09-23T04:56:32;8.30;99.90
7360;DHT22;3720;48.274;7.796;2022-09-23T04:59:04;8.30;99.90
7360;DHT22;3720;48.274;7.796;2022-09-23T05:01:36;8.20;99.90
7360;DHT22;3720;48.274;7.796;2022-09-23T05:04:10;8.30;99.90
7360;DHT22;3720;48.274;7.796;2022-09-23T05:06:43;8.40;99.90
7360;DHT22;3720;48.274;7.796;2022-09-23T05:09:17;8.40;99.90
7360;DHT22;3720;48.274;7.796;2022-09-23T05:11:49;8.30;99.90
7360;DHT22;3720;48.274;7.796;2022-09-23T05:14:21;8.30;99.90
7360;DHT22;3720;48.274;7.796;2022-09-23T05:16:53;8.30;99.90
7360;DHT22;3720;48.274;7.796;2022-09-23T05:19:25;8.20;99.90
7360;DHT22;3720;48.274;7.796;2022-09-23T05:21:57;8.20;99.90
7360;DHT22;3720;48.274;7.796;2022-09-23T05:24:30;8.20;99.90
7360;DHT22;3720;48.274;7.796;2022-09-23T05:27:02;8.20;99.90
7360;DHT22;3720;48.274;7.796;2022-09-23T05:29:37;8.20;99.90
7360;DHT22;3720;48.274;7.796;2022-09-23T05:32:09;8.20;99.90
7360;DHT22;3720;48.274;7.796;2022-09-23T05:34:41;8.20;99.90
7360;DHT22;3720;48.274;7.796;2022-09-23T05:37:13;8.30;99.90
7360;DHT22;3720;48.274;7.796;2022-09-23T05:39:46;8.30;99.90
7360;DHT22;3720;48.274;7.796;2022-09-23T05:42:18;8.30;99.90
7360;DHT22;3720;48.274;7.796;2022-09-23T05:44:50;8.30;99.90
7360;DHT22;3720;48.274;7.796;2022-09-23T05:47:23;8.30;99.90
7360;DHT22;3720;48.274;7.796;2022-09-23T05:49:55;8.30;99.90
7360;DHT22;3720;48.274;7.796;2022-09-23T05:52:27;8.30;99.90
7360;DHT22;3720;48.274;7.796;2022-09-23T05:55:00;8.20;99.90
7360;DHT22;3720;48.274;7.796;2022-09-23T05:57:32;8.20;99.90
7360;DHT22;3720;48.274;7.796;2022-09-23T06:00:05;8.30;99.90
7360;DHT22;3720;48.274;7.796;2022-09-23T06:02:37;8.40;99.90
7360;DHT22;3720;48.274;7.796;2022-09-23T06:05:09;8.40;99.90
7360;DHT22;3720;48.274;7.796;2022-09-23T06:07:41;8.50;99.90
7360;DHT22;3720;48.274;7.796;2022-09-23T06:10:15;8.50;99.90
7360;DHT22;3720;48.274;7.796;2022-09-23T06:12:47;8.60;99.90
7360;DHT22;3720;48.274;7.796;2022-09-23T06:15:19;8.70;99.90
7360;DHT22;3720;48.274;7.796;2022-09-23T06:17:51;8.70;99.90
7360;DHT22;3720;48.274;7.796;2022-09-23T06:20:23;8.80;99.90
7360;DHT22;3720;48.274;7.796;2022-09-23T06:23:00;8.80;99.90
7360;DHT22;3720;48.274;7.796;2022-09-23T06:25:34;8.90;99.90
7360;DHT22;3720;48.274;7.796;2022-09-23T06:28:07;9.00;99.90
7360;DHT22;3720;48.274;7.796;2022-09-23T06:30:41;9.10;99.90
7360;DHT22;3720;48.274;7.796;2022-09-23T06:33:13;9.20;99.90
7360;DHT22;3720;48.274;7.796;2022-09-23T06:35:45;9.20;99.90
7360;DHT22;3720;48.274;7.796;2022-09-23T06:38:17;9.30;99.90
7360;DHT22;3720;48.274;7.796;2022-09-23T06:40:51;9.50;99.90
7360;DHT22;3720;48.274;7.796;2022-09-23T06:43:24;9.50;99.90
7360;DHT22;3720;48.274;7.796;2022-09-23T06:45:59;9.70;99.90
7360;DHT22;3720;48.274;7.796;2022-09-23T06:48:31;9.80;99.90
7360;DHT22;3720;48.274;7.796;2022-09-23T06:51:05;9.80;99.90
7360;DHT22;3720;48.274;7.796;2022-09-23T06:53:38;9.90;99.90
7360;DHT22;3720;48.274;7.796;2022-09-23T06:56:11;10.00;99.90
7360;DHT22;3720;48.274;7.796;2022-09-23T06:58:44;10.10;99.90
7360;DHT22;3720;48.274;7.796;2022-09-23T07:01:16;10.20;99.90
7360;DHT22;3720;48.274;7.796;2022-09-23T07:03:49;10.30;99.90
7360;DHT22;3720;48.274;7.796;2022-09-23T07:06:21;10.40;99.90
7360;DHT22;3720;48.274;7.796;2022-09-23T07:08:54;10.50;99.90
7360;DHT22;3720;48.274;7.796;2022-09-23T07:11:27;10.60;99.90
7360;DHT22;3720;48.274;7.796;2022-09-23T07:13:59;10.70;99.90
7360;DHT22;3720;48.274;7.796;2022-09-23T07:16:30;10.80;99.90
7360;DHT22;3720;48.274;7.796;2022-09-23T07:19:03;10.80;99.90
7360;DHT22;3720;48.274;7.796;2022-09-23T07:21:34;11.00;99.90
7360;DHT22;3720;48.274;7.796;2022-09-23T07:24:07;11.10;99.90
7360;DHT22;3720;48.274;7.796;2022-09-23T07:26:40;11.20;99.90
7360;DHT22;3720;48.274;7.796;2022-09-23T07:29:13;11.20;99.90
7360;DHT22;3720;48.274;7.796;2022-09-23T07:31:45;11.20;99.90
7360;DHT22;3720;48.274;7.796;2022-09-23T07:34:17;11.20;99.90
7360;DHT22;3720;48.274;7.796;2022-09-23T07:36:49;11.30;99.90
7360;DHT22;3720;48.274;7.796;2022-09-23T07:39:21;11.30;99.90
7360;DHT22;3720;48.274;7.796;2022-09-23T07:41:56;11.40;99.90
7360;DHT22;3720;48.274;7.796;2022-09-23T07:44:29;11.40;99.90
7360;DHT22;3720;48.274;7.796;2022-09-23T07:47:02;11.50;99.90
7360;DHT22;3720;48.274;7.796;2022-09-23T07:49:34;11.50;99.90
7360;DHT22;3720;48.274;7.796;2022-09-23T07:52:07;11.60;99.90
7360;DHT22;3720;48.274;7.796;2022-09-23T07:54:39;11.70;99.90
7360;DHT22;3720;48.274;7.796;2022-09-23T07:57:12;11.70;99.90
7360;DHT22;3720;48.274;7.796;2022-09-23T07:59:46;11.90;99.90
7360;DHT22;3720;48.274;7.796;2022-09-23T08:02:18;12.00;99.90
7360;DHT22;3720;48.274;7.796;2022-09-23T08:04:50;12.10;99.90
7360;DHT22;3720;48.274;7.796;2022-09-23T08:07:24;12.20;99.90
7360;DHT22;3720;48.274;7.796;2022-09-23T08:09:56;12.30;99.90
7360;DHT22;3720;48.274;7.796;2022-09-23T08:12:29;12.50;99.90
7360;DHT22;3720;48.274;7.796;2022-09-23T08:15:01;12.60;99.90
7360;DHT22;3720;48.274;7.796;2022-09-23T08:17:33;12.80;99.90
7360;DHT22;3720;48.274;7.796;2022-09-23T08:20:06;12.80;99.90
7360;DHT22;3720;48.274;7.796;2022-09-23T08:22:59;12.90;99.90
7360;DHT22;3720;48.274;7.796;2022-09-23T08:25:30;13.00;99.90
7360;DHT22;3720;48.274;7.796;2022-09-23T08:28:04;13.20;99.90
7360;DHT22;3720;48.274;7.796;2022-09-23T08:30:38;13.30;99.90
7360;DHT22;3720;48.274;7.796;2022-09-23T08:33:10;13.40;99.90
7360;DHT22;3720;48.274;7.796;2022-09-23T08:35:42;13.50;99.90
7360;DHT22;3720;48.274;7.796;2022-09-23T08:38:14;13.70;99.90
7360;DHT22;3720;48.274;7.796;2022-09-23T08:40:48;13.70;99.90
7360;DHT22;3720;48.274;7.796;2022-09-23T08:43:25;13.80;99.90
7360;DHT22;3720;48.274;7.796;2022-09-23T08:46:02;14.00;99.90
7360;DHT22;3720;48.274;7.796;2022-09-23T08:48:37;14.20;99.90
7360;DHT22;3720;48.274;7.796;2022-09-23T08:51:14;14.40;99.90
7360;DHT22;3720;48.274;7.796;2022-09-23T08:53:48;14.50;99.90
7360;DHT22;3720;48.274;7.796;2022-09-23T08:56:22;14.60;99.90
7360;DHT22;3720;48.274;7.796;2022-09-23T08:59:00;14.80;99.90
7360;DHT22;3720;48.274;7.796;2022-09-23T09:01:38;14.90;99.90
7360;DHT22;3720;48.274;7.796;2022-09-23T09:04:17;15.10;99.90
7360;DHT22;3720;48.274;7.796;2022-09-23T09:06:51;15.20;99.90
7360;DHT22;3720;48.274;7.796;2022-09-23T09:09:27;15.40;99.90
7360;DHT22;3720;48.274;7.796;2022-09-23T09:12:07;15.50;99.90
7360;DHT22;3720;48.274;7.796;2022-09-23T09:14:49;15.60;99.90
7360;DHT22;3720;48.274;7.796;2022-09-23T09:17:28;15.90;99.90
7360;DHT22;3720;48.274;7.796;2022-09-23T09:20:22;16.00;99.90
7360;DHT22;3720;48.274;7.796;2022-09-23T09:22:55;16.10;99.90
7360;DHT22;3720;48.274;7.796;2022-09-23T09:25:38;16.20;99.90
7360;DHT22;3720;48.274;7.796;2022-09-23T09:28:18;16.40;99.90
7360;DHT22;3720;48.274;7.796;2022-09-23T09:30:56;16.60;99.90
7360;DHT22;3720;48.274;7.796;2022-09-23T09:33:36;16.90;99.90
7360;DHT22;3720;48.274;7.796;2022-09-23T09:36:20;17.00;99.90
7360;DHT22;3720;48.274;7.796;2022-09-23T09:38:54;17.20;99.90
7360;DHT22;3720;48.274;7.796;2022-09-23T09:41:27;17.40;99.90
7360;DHT22;3720;48.274;7.796;2022-09-23T09:44:01;17.60;99.90
7360;DHT22;3720;48.274;7.796;2022-09-23T09:47:04;17.80;99.90
7360;DHT22;3720;48.274;7.796;2022-09-23T09:49:44;18.10;99.90
7360;DHT22;3720;48.274;7.796;2022-09-23T09:52:21;18.30;99.90
7360;DHT22;3720;48.274;7.796;2022-09-23T09:54:54;18.60;99.90
7360;DHT22;3720;48.274;7.796;2022-09-23T09:57:32;18.60;99.90
7360;DHT22;3720;48.274;7.796;2022-09-23T10:00:31;18.70;99.90
7360;DHT22;3720;48.274;7.796;2022-09-23T10:03:24;18.80;99.90
7360;DHT22;3720;48.274;7.796;2022-09-23T10:05:57;19.00;99.90
7360;DHT22;3720;48.274;7.796;2022-09-23T10:08:31;19.30;99.90
7360;DHT22;3720;48.274;7.796;2022-09-23T10:11:10;19.50;99.90
7360;DHT22;3720;48.274;7.796;2022-09-23T10:14:02;19.70;99.90
7360;DHT22;3720;48.274;7.796;2022-09-23T10:16:34;19.90;99.90
7360;DHT22;3720;48.274;7.796;2022-09-23T10:19:21;20.20;99.90
7360;DHT22;3720;48.274;7.796;2022-09-23T10:21:58;20.30;99.90
7360;DHT22;3720;48.274;7.796;2022-09-23T10:24:33;20.20;99.90
7360;DHT22;3720;48.274;7.796;2022-09-23T10:27:07;20.20;99.90
7360;DHT22;3720;48.274;7.796;2022-09-23T10:29:48;20.30;99.90
7360;DHT22;3720;48.274;7.796;2022-09-23T10:32:29;20.60;99.90
7360;DHT22;3720;48.274;7.796;2022-09-23T10:35:12;20.80;99.90
7360;DHT22;3720;48.274;7.796;2022-09-23T10:37:46;21.00;99.90
7360;DHT22;3720;48.274;7.796;2022-09-23T10:40:24;21.30;99.90
7360;DHT22;3720;48.274;7.796;2022-09-23T10:43:22;21.40;99.90
7360;DHT22;3720;48.274;7.796;2022-09-23T10:46:17;21.50;99.90
7360;DHT22;3720;48.274;7.796;2022-09-23T10:49:33;21.70;99.90
7360;DHT22;3720;48.274;7.796;2022-09-23T10:52:31;22.10;99.90
7360;DHT22;3720;48.274;7.796;2022-09-23T10:55:17;22.50;99.90
7360;DHT22;3720;48.274;7.796;2022-09-23T10:58:05;22.90;99.90
7360;DHT22;3720;48.274;7.796;2022-09-23T11:00:45;23.00;99.90
7360;DHT22;3720;48.274;7.796;2022-09-23T11:06:22;23.30;99.90
7360;DHT22;3720;48.274;7.796;2022-09-23T11:09:14;23.50;99.90
7360;DHT22;3720;48.274;7.796;2022-09-23T11:12:00;23.50;99.90
7360;DHT22;3720;48.274;7.796;2022-09-23T11:14:50;23.50;99.90
7360;DHT22;3720;48.274;7.796;2022-09-23T11:17:35;23.70;99.90
7360;DHT22;3720;48.274;7.796;2022-09-23T11:20:25;24.00;99.90
7360;DHT22;3720;48.274;7.796;2022-09-23T11:23:43;23.90;99.90
7360;DHT22;3720;48.274;7.796;2022-09-23T11:26:28;24.30;99.90
7360;DHT22;3720;48.274;7.796;2022-09-23T11:29:17;24.50;99.90
7360;DHT22;3720;48.274;7.796;2022-09-23T11:32:00;24.60;99.90
7360;DHT22;3720;48.274;7.796;2022-09-23T11:34:54;24.80;99.60
7360;DHT22;3720;48.274;7.796;2022-09-23T11:37:34;24.90;98.60
7360;DHT22;3720;48.274;7.796;2022-09-23T11:40:14;24.90;98.90
7360;DHT22;3720;48.274;7.796;2022-09-23T11:42:54;25.20;98.00
7360;DHT22;3720;48.274;7.796;2022-09-23T11:45:30;25.50;97.90
7360;DHT22;3720;48.274;7.796;2022-09-23T11:48:07;25.50;95.20
7360;DHT22;3720;48.274;7.796;2022-09-23T11:50:45;25.50;95.30
7360;DHT22;3720;48.274;7.796;2022-09-23T11:53:21;25.50;94.00
7360;DHT22;3720;48.274;7.796;2022-09-23T11:56:00;25.70;93.60
7360;DHT22;3720;48.274;7.796;2022-09-23T11:58:38;25.90;92.80
7360;DHT22;3720;48.274;7.796;2022-09-23T12:01:15;26.00;92.10
7360;DHT22;3720;48.274;7.796;2022-09-23T12:03:54;26.20;92.50
7360;DHT22;3720;48.274;7.796;2022-09-23T12:06:35;26.20;91.80
7360;DHT22;3720;48.274;7.796;2022-09-23T12:09:14;26.00;91.00
7360;DHT22;3720;48.274;7.796;2022-09-23T12:11:54;26.10;90.70
7360;DHT22;3720;48.274;7.796;2022-09-23T12:14:37;26.10;90.00
7360;DHT22;3720;48.274;7.796;2022-09-23T12:17:22;26.00;88.80
7360;DHT22;3720;48.274;7.796;2022-09-23T12:20:08;26.10;88.80
7360;DHT22;3720;48.274;7.796;2022-09-23T12:22:55;26.30;87.20
7360;DHT22;3720;48.274;7.796;2022-09-23T12:25:36;26.30;86.40
7360;DHT22;3720;48.274;7.796;2022-09-23T12:28:16;26.40;87.00
7360;DHT22;3720;48.274;7.796;2022-09-23T12:30:55;26.50;86.80
7360;DHT22;3720;48.274;7.796;2022-09-23T12:33:28;26.40;84.40
7360;DHT22;3720;48.274;7.796;2022-09-23T12:36:03;26.40;83.90
7360;DHT22;3720;48.274;7.796;2022-09-23T12:38:38;26.50;84.80
7360;DHT22;3720;48.274;7.796;2022-09-23T12:41:19;26.70;82.90
7360;DHT22;3720;48.274;7.796;2022-09-23T12:43:57;26.80;84.10
7360;DHT22;3720;48.274;7.796;2022-09-23T12:46:33;26.80;82.30
7360;DHT22;3720;48.274;7.796;2022-09-23T12:49:21;26.70;84.20
7360;DHT22;3720;48.274;7.796;2022-09-23T12:52:12;26.90;86.30
7360;DHT22;3720;48.274;7.796;2022-09-23T12:54:56;27.20;82.70
7360;DHT22;3720;48.274;7.796;2022-09-23T12:57:40;27.40;79.60
7360;DHT22;3720;48.274;7.796;2022-09-23T13:00:20;27.40;79.50
7360;DHT22;3720;48.274;7.796;2022-09-23T13:02:57;27.40;79.00
7360;DHT22;3720;48.274;7.796;2022-09-23T13:05:49;27.30;78.80
7360;DHT22;3720;48.274;7.796;2022-09-23T13:08:40;27.40;78.40
7360;DHT22;3720;48.274;7.796;2022-09-23T13:11:17;27.40;78.30
7360;DHT22;3720;48.274;7.796;2022-09-23T13:13:50;27.40;77.80
7360;DHT22;3720;48.274;7.796;2022-09-23T13:16:28;27.30;76.10
7360;DHT22;3720;48.274;7.796;2022-09-23T13:19:03;27.00;75.40
7360;DHT22;3720;48.274;7.796;2022-09-23T13:21:59;26.70;76.40
7360;DHT22;3720;48.274;7.796;2022-09-23T13:24:40;26.30;76.20
7360;DHT22;3720;48.274;7.796;2022-09-23T13:27:31;26.00;80.10
7360;DHT22;3720;48.274;7.796;2022-09-23T13:30:18;25.60;80.40
7360;DHT22;3720;48.274;7.796;2022-09-23T13:33:01;25.40;81.20
7360;DHT22;3720;48.274;7.796;2022-09-23T13:35:37;25.10;81.40
7360;DHT22;3720;48.274;7.796;2022-09-23T13:38:18;24.90;81.10
7360;DHT22;3720;48.274;7.796;2022-09-23T13:40:57;24.80;82.00
7360;DHT22;3720;48.274;7.796;2022-09-23T13:43:33;24.60;82.50
7360;DHT22;3720;48.274;7.796;2022-09-23T13:46:08;24.60;83.60
7360;DHT22;3720;48.274;7.796;2022-09-23T13:48:43;24.60;85.50
7360;DHT22;3720;48.274;7.796;2022-09-23T13:51:20;24.50;83.90
7360;DHT22;3720;48.274;7.796;2022-09-23T13:53:55;24.40;84.50
7360;DHT22;3720;48.274;7.796;2022-09-23T13:56:29;24.40;85.30
7360;DHT22;3720;48.274;7.796;2022-09-23T13:59:18;24.40;85.90
7360;DHT22;3720;48.274;7.796;2022-09-23T14:02:03;24.40;86.80
7360;DHT22;3720;48.274;7.796;2022-09-23T14:04:35;24.30;87.10
7360;DHT22;3720;48.274;7.796;2022-09-23T14:07:11;24.10;88.60
7360;DHT22;3720;48.274;7.796;2022-09-23T14:09:48;24.00;85.90
7360;DHT22;3720;48.274;7.796;2022-09-23T14:12:21;23.90;86.10
7360;DHT22;3720;48.274;7.796;2022-09-23T14:14:53;24.00;87.50
7360;DHT22;3720;48.274;7.796;2022-09-23T14:17:25;24.00;90.10
7360;DHT22;3720;48.274;7.796;2022-09-23T14:19:58;23.90;89.50
7360;DHT22;3720;48.274;7.796;2022-09-23T14:22:31;23.90;90.40
7360;DHT22;3720;48.274;7.796;2022-09-23T14:25:03;23.80;90.20
7360;DHT22;3720;48.274;7.796;2022-09-23T14:27:35;23.80;90.70
7360;DHT22;3720;48.274;7.796;2022-09-23T14:30:14;23.70;90.70
7360;DHT22;3720;48.274;7.796;2022-09-23T14:32:47;23.70;90.50
7360;DHT22;3720;48.274;7.796;2022-09-23T14:35:21;23.80;89.70
7360;DHT22;3720;48.274;7.796;2022-09-23T14:37:57;23.90;89.30
7360;DHT22;3720;48.274;7.796;2022-09-23T14:40:59;24.00;88.00
7360;DHT22;3720;48.274;7.796;2022-09-23T14:43:59;24.00;87.40
7360;DHT22;3720;48.274;7.796;2022-09-23T14:46:34;24.00;89.20
7360;DHT22;3720;48.274;7.796;2022-09-23T14:49:14;24.10;89.40
7360;DHT22;3720;48.274;7.796;2022-09-23T14:51:49;24.10;88.20
7360;DHT22;3720;48.274;7.796;2022-09-23T14:54:29;24.00;89.00
7360;DHT22;3720;48.274;7.796;2022-09-23T14:57:17;24.00;89.00
7360;DHT22;3720;48.274;7.796;2022-09-23T14:59:53;23.90;90.70
7360;DHT22;3720;48.274;7.796;2022-09-23T15:02:31;23.80;90.70
7360;DHT22;3720;48.274;7.796;2022-09-23T15:05:22;23.60;91.10
7360;DHT22;3720;48.274;7.796;2022-09-23T15:08:01;23.40;91.80
7360;DHT22;3720;48.274;7.796;2022-09-23T15:10:36;23.30;92.30
7360;DHT22;3720;48.274;7.796;2022-09-23T15:13:12;23.20;93.30
7360;DHT22;3720;48.274;7.796;2022-09-23T15:15:46;23.10;93.90
7360;DHT22;3720;48.274;7.796;2022-09-23T15:18:21;23.00;93.90
7360;DHT22;3720;48.274;7.796;2022-09-23T15:20:56;22.90;94.50
7360;DHT22;3720;48.274;7.796;2022-09-23T15:23:33;22.90;94.70
7360;DHT22;3720;48.274;7.796;2022-09-23T15:26:09;22.80;95.00
7360;DHT22;3720;48.274;7.796;2022-09-23T15:28:42;22.80;95.40
7360;DHT22;3720;48.274;7.796;2022-09-23T15:31:17;22.80;96.40
7360;DHT22;3720;48.274;7.796;2022-09-23T15:33:50;22.70;97.30
7360;DHT22;3720;48.274;7.796;2022-09-23T15:36:23;22.70;98.10
7360;DHT22;3720;48.274;7.796;2022-09-23T15:39:00;22.60;98.60
7360;DHT22;3720;48.274;7.796;2022-09-23T15:41:32;22.50;98.80
7360;DHT22;3720;48.274;7.796;2022-09-23T15:44:11;22.40;99.60
7360;DHT22;3720;48.274;7.796;2022-09-23T15:46:46;22.20;99.90
7360;DHT22;3720;48.274;7.796;2022-09-23T15:49:22;22.20;99.90
7360;DHT22;3720;48.274;7.796;2022-09-23T15:51:58;22.10;99.90
7360;DHT22;3720;48.274;7.796;2022-09-23T15:54:31;22.00;99.90
7360;DHT22;3720;48.274;7.796;2022-09-23T15:57:03;22.00;99.90
7360;DHT22;3720;48.274;7.796;2022-09-23T15:59:35;21.90;99.90
7360;DHT22;3720;48.274;7.796;2022-09-23T16:02:15;21.90;99.90
7360;DHT22;3720;48.274;7.796;2022-09-23T16:04:49;21.80;99.90
7360;DHT22;3720;48.274;7.796;2022-09-23T16:07:22;21.80;99.90
7360;DHT22;3720;48.274;7.796;2022-09-23T16:09:54;21.70;99.90
7360;DHT22;3720;48.274;7.796;2022-09-23T16:12:28;21.60;99.90
7360;DHT22;3720;48.274;7.796;2022-09-23T16:15:00;21.50;99.90
7360;DHT22;3720;48.274;7.796;2022-09-23T16:17:33;21.40;99.90
7360;DHT22;3720;48.274;7.796;2022-09-23T16:20:06;21.30;99.90
7360;DHT22;3720;48.274;7.796;2022-09-23T16:22:38;21.20;99.90
7360;DHT22;3720;48.274;7.796;2022-09-23T16:25:10;21.10;99.90
7360;DHT22;3720;48.274;7.796;2022-09-23T16:27:42;21.00;99.90
7360;DHT22;3720;48.274;7.796;2022-09-23T16:30:14;21.00;99.90
7360;DHT22;3720;48.274;7.796;2022-09-23T16:32:48;20.80;99.90
7360;DHT22;3720;48.274;7.796;2022-09-23T16:35:23;20.80;99.90
7360;DHT22;3720;48.274;7.796;2022-09-23T16:37:55;20.60;99.90
7360;DHT22;3720;48.274;7.796;2022-09-23T16:40:27;20.50;99.90
7360;DHT22;3720;48.274;7.796;2022-09-23T16:43:01;20.40;99.90
7360;DHT22;3720;48.274;7.796;2022-09-23T16:45:34;20.30;99.90
7360;DHT22;3720;48.274;7.796;2022-09-23T16:48:09;20.30;99.90
7360;DHT22;3720;48.274;7.796;2022-09-23T16:50:40;20.20;99.90
7360;DHT22;3720;48.274;7.796;2022-09-23T16:53:13;20.10;99.90
7360;DHT22;3720;48.274;7.796;2022-09-23T16:55:47;20.00;99.90
7360;DHT22;3720;48.274;7.796;2022-09-23T16:58:19;19.90;99.90
7360;DHT22;3720;48.274;7.796;2022-09-23T17:00:56;19.90;99.90
7360;DHT22;3720;48.274;7.796;2022-09-23T17:03:47;19.80;99.90
7360;DHT22;3720;48.274;7.796;2022-09-23T17:06:18;19.70;99.90
7360;DHT22;3720;48.274;7.796;2022-09-23T17:08:53;19.60;99.90
7360;DHT22;3720;48.274;7.796;2022-09-23T17:11:27;19.50;99.90
7360;DHT22;3720;48.274;7.796;2022-09-23T17:13:59;19.50;99.90